TimeHST,TemperatureF,Dew PointF,Humidity,Sea Level PressureIn,VisibilityMPH,Wind Direction,Wind SpeedMPH,Gust SpeedMPH,PrecipitationIn,Events,Conditions,WindDirDegrees,DateUTC
12:04 AM,64.4,62.6,94,30.05,1.8,West,4.6,-,N/A,,Overcast,280,2013-03-11 10:04:00
12:09 AM,64.4,62.6,94,30.05,2.5,WNW,3.5,-,N/A,,Overcast,300,2013-03-11 10:09:00
12:17 AM,62.6,62.6,100,30.05,6.0,NW,4.6,-,N/A,,Mostly Cloudy,320,2013-03-11 10:17:00
12:54 AM,62.1,61.0,96,30.05,6.0,NW,3.5,-,N/A,,Mostly Cloudy,320,2013-03-11 10:54:00
1:54 AM,62.1,60.1,93,30.03,10.0,Calm,Calm,-,N/A,,Mostly Cloudy,0,2013-03-11 11:54:00
2:54 AM,62.1,60.1,93,30.01,10.0,Calm,Calm,-,N/A,,Overcast,0,2013-03-11 12:54:00
3:54 AM,63.0,61.0,93,30.00,9.0,North,4.6,-,N/A,,Partly Cloudy,360,2013-03-11 13:54:00
4:54 AM,62.1,60.1,93,30.01,8.0,North,3.5,-,N/A,,Mostly Cloudy,350,2013-03-11 14:54:00
5:54 AM,64.0,61.0,90,30.02,10.0,Calm,Calm,-,N/A,,Mostly Cloudy,0,2013-03-11 15:54:00
6:54 AM,64.9,61.0,87,30.05,10.0,Calm,Calm,-,N/A,,Mostly Cloudy,0,2013-03-11 16:54:00
7:54 AM,68.0,63.0,84,30.07,10.0,North,5.8,-,N/A,,Overcast,10,2013-03-11 17:54:00
8:54 AM,71.1,62.1,73,30.08,10.0,NNE,5.8,-,N/A,,Scattered Clouds,20,2013-03-11 18:54:00
9:54 AM,72.0,64.0,76,30.09,10.0,NNE,8.1,-,N/A,,Scattered Clouds,20,2013-03-11 19:54:00
10:54 AM,73.0,63.0,71,30.10,10.0,North,4.6,-,N/A,,Mostly Cloudy,10,2013-03-11 20:54:00
11:54 AM,73.0,64.0,73,30.08,10.0,North,10.4,-,N/A,,Scattered Clouds,360,2013-03-11 21:54:00
12:54 PM,75.9,64.9,69,30.05,10.0,North,11.5,-,0.00,,Scattered Clouds,350,2013-03-11 22:54:00
1:54 PM,73.0,64.0,73,30.04,10.0,North,10.4,-,N/A,,Scattered Clouds,360,2013-03-11 23:54:00
2:54 PM,73.9,66.0,76,30.02,10.0,North,10.4,-,N/A,,Mostly Cloudy,350,2013-03-12 00:54:00
3:54 PM,75.0,64.0,69,30.01,10.0,NNE,9.2,-,N/A,,Scattered Clouds,20,2013-03-12 01:54:00
4:54 PM,73.9,64.0,71,30.01,10.0,NNE,9.2,-,N/A,,Scattered Clouds,30,2013-03-12 02:54:00
5:54 PM,70.0,63.0,78,30.03,10.0,North,6.9,-,N/A,,Scattered Clouds,10,2013-03-12 03:54:00
6:54 PM,69.1,63.0,81,30.04,10.0,NNE,4.6,-,N/A,,Clear,20,2013-03-12 04:54:00
7:54 PM,68.0,63.0,84,30.06,10.0,NNE,4.6,-,N/A,,Partly Cloudy,30,2013-03-12 05:54:00
8:09 PM,68.0,62.6,83,30.05,10.0,NNE,3.5,-,N/A,,Mostly Cloudy,20,2013-03-12 06:09:00
8:32 PM,68.0,62.6,83,30.06,10.0,NNE,3.5,-,N/A,,Scattered Clouds,20,2013-03-12 06:32:00
8:54 PM,68.0,63.0,84,30.08,10.0,North,5.8,-,N/A,,Partly Cloudy,10,2013-03-12 06:54:00
9:54 PM,68.0,63.0,84,30.10,9.0,North,8.1,-,N/A,,Partly Cloudy,10,2013-03-12 07:54:00
10:54 PM,68.0,63.0,84,30.09,10.0,North,5.8,-,N/A,,Clear,360,2013-03-12 08:54:00
11:54 PM,68.0,63.0,84,30.07,10.0,NNE,4.6,-,N/A,,Clear,20,2013-03-12 09:54:00